aviador You're here:

CYZU Decoded Metar

WHITECOURT in AB, CANADA
Report Time2018-02-17 23:00:00
UTC Time2018-02-17 23:41:08
Flight Rules vfr VFR
Wind340° at 12 Gusting to 20 kt
W.Decomp.*RWY 29: 10.3 kt HW 6.2 kt RCW
W.Rank340° ranks 18
Current wind is above 340° avg. (6.2)
Visibility9999 m
Phenomena:N/A
Clouds:Broken 037 Hf
Broken 240 Hf
Expected CloudBase > 3,200 ft AGL from Temp-Dew spread
Ceiling3,700 ft
Temp-11°C (ISA -21)
Dew Point-19°C (52% RH)
AAT-18.9°C
QNH1010 hPa
Density Alt108 ft
Elevation2,575 ft
Report Wrong Elevation
Raw Report
CYZU 172300Z 34012G20KT 15SM BKN037 BKN240 M11/M19 A2984 RMK
SC5CI2 SLP170=

Extra information for CYZU:More info

Metar Taf Metar & Taf Last 4 Metars F.Rules Stats Wind Profile Meteogram Temp Stats Airport Information Weather charts Add Link Nearby VenuesMetar ALERT Operation Metar Decoded Social comments